sensor_id;sensor_type;location;lat;lon;timestamp;P1;durP1;ratioP1;P2;durP2;ratioP2
57401;SDS011;43226;51.110;6.998;2023-09-30T00:00:33;9.20;;;4.70;;
57401;SDS011;43226;51.110;6.998;2023-09-30T00:02:58;11.30;;;5.50;;
57401;SDS011;43226;51.110;6.998;2023-09-30T00:05:25;9.60;;;4.90;;
57401;SDS011;43226;51.110;6.998;2023-09-30T00:07:51;13.67;;;4.37;;
57401;SDS011;43226;51.110;6.998;2023-09-30T00:10:16;11.47;;;4.87;;
57401;SDS011;43226;51.110;6.998;2023-09-30T00:12:41;12.23;;;3.83;;
57401;SDS011;43226;51.110;6.998;2023-09-30T00:15:06;9.50;;;3.90;;
57401;SDS011;43226;51.110;6.998;2023-09-30T00:17:32;18.77;;;5.00;;
57401;SDS011;43226;51.110;6.998;2023-09-30T00:19:57;14.00;;;5.00;;
57401;SDS011;43226;51.110;6.998;2023-09-30T00:22:24;8.20;;;3.97;;
57401;SDS011;43226;51.110;6.998;2023-09-30T00:24:49;13.57;;;4.97;;
57401;SDS011;43226;51.110;6.998;2023-09-30T00:27:14;11.10;;;4.07;;
57401;SDS011;43226;51.110;6.998;2023-09-30T00:29:40;7.27;;;3.70;;
57401;SDS011;43226;51.110;6.998;2023-09-30T00:32:05;9.93;;;4.43;;
57401;SDS011;43226;51.110;6.998;2023-09-30T00:34:34;9.53;;;3.90;;
57401;SDS011;43226;51.110;6.998;2023-09-30T00:36:59;10.50;;;4.13;;
57401;SDS011;43226;51.110;6.998;2023-09-30T00:39:25;7.00;;;3.90;;
57401;SDS011;43226;51.110;6.998;2023-09-30T00:41:52;4.80;;;3.20;;
57401;SDS011;43226;51.110;6.998;2023-09-30T00:44:17;12.90;;;4.33;;
57401;SDS011;43226;51.110;6.998;2023-09-30T00:46:42;6.10;;;3.30;;
57401;SDS011;43226;51.110;6.998;2023-09-30T00:49:08;8.43;;;3.40;;
57401;SDS011;43226;51.110;6.998;2023-09-30T00:51:35;7.93;;;3.43;;
57401;SDS011;43226;51.110;6.998;2023-09-30T00:54:00;4.17;;;3.10;;
57401;SDS011;43226;51.110;6.998;2023-09-30T00:56:28;5.10;;;3.03;;
57401;SDS011;43226;51.110;6.998;2023-09-30T00:58:54;5.53;;;3.13;;
57401;SDS011;43226;51.110;6.998;2023-09-30T01:01:20;6.57;;;3.87;;
57401;SDS011;43226;51.110;6.998;2023-09-30T01:03:45;11.07;;;3.33;;
57401;SDS011;43226;51.110;6.998;2023-09-30T01:06:11;8.43;;;3.50;;
57401;SDS011;43226;51.110;6.998;2023-09-30T01:08:36;5.53;;;3.37;;
57401;SDS011;43226;51.110;6.998;2023-09-30T01:11:01;10.53;;;4.13;;
57401;SDS011;43226;51.110;6.998;2023-09-30T01:13:36;4.97;;;3.20;;
57401;SDS011;43226;51.110;6.998;2023-09-30T01:16:08;10.07;;;3.57;;
57401;SDS011;43226;51.110;6.998;2023-09-30T01:18:36;5.57;;;3.17;;
57401;SDS011;43226;51.110;6.998;2023-09-30T01:21:03;4.60;;;3.07;;
57401;SDS011;43226;51.110;6.998;2023-09-30T01:23:29;4.60;;;2.83;;
57401;SDS011;43226;51.110;6.998;2023-09-30T01:25:54;6.77;;;3.43;;
57401;SDS011;43226;51.110;6.998;2023-09-30T01:28:21;4.57;;;3.20;;
57401;SDS011;43226;51.110;6.998;2023-09-30T01:30:46;5.87;;;3.30;;
57401;SDS011;43226;51.110;6.998;2023-09-30T01:33:11;4.00;;;2.93;;
57401;SDS011;43226;51.110;6.998;2023-09-30T01:35:36;7.50;;;3.43;;
57401;SDS011;43226;51.110;6.998;2023-09-30T01:38:01;6.75;;;3.25;;
57401;SDS011;43226;51.110;6.998;2023-09-30T01:40:26;11.00;;;3.70;;
57401;SDS011;43226;51.110;6.998;2023-09-30T01:42:52;4.13;;;2.63;;
57401;SDS011;43226;51.110;6.998;2023-09-30T01:45:17;3.53;;;2.70;;
57401;SDS011;43226;51.110;6.998;2023-09-30T01:47:42;8.00;;;3.73;;
57401;SDS011;43226;51.110;6.998;2023-09-30T01:50:07;5.43;;;3.17;;
57401;SDS011;43226;51.110;6.998;2023-09-30T01:52:32;6.30;;;3.00;;
57401;SDS011;43226;51.110;6.998;2023-09-30T01:55:00;5.43;;;3.13;;
57401;SDS011;43226;51.110;6.998;2023-09-30T01:57:26;6.33;;;3.93;;
57401;SDS011;43226;51.110;6.998;2023-09-30T01:59:51;8.73;;;3.60;;
57401;SDS011;43226;51.110;6.998;2023-09-30T02:02:17;7.50;;;3.57;;
57401;SDS011;43226;51.110;6.998;2023-09-30T02:04:42;5.43;;;3.53;;
57401;SDS011;43226;51.110;6.998;2023-09-30T02:07:08;6.67;;;3.23;;
57401;SDS011;43226;51.110;6.998;2023-09-30T02:09:33;7.77;;;4.10;;
57401;SDS011;43226;51.110;6.998;2023-09-30T02:11:59;11.20;;;4.23;;
57401;SDS011;43226;51.110;6.998;2023-09-30T02:14:24;6.90;;;3.60;;
57401;SDS011;43226;51.110;6.998;2023-09-30T02:16:49;7.90;;;4.07;;
57401;SDS011;43226;51.110;6.998;2023-09-30T02:19:14;12.87;;;4.50;;
57401;SDS011;43226;51.110;6.998;2023-09-30T02:21:40;9.70;;;4.30;;
57401;SDS011;43226;51.110;6.998;2023-09-30T02:24:05;14.70;;;3.80;;
57401;SDS011;43226;51.110;6.998;2023-09-30T02:26:32;7.60;;;3.40;;
57401;SDS011;43226;51.110;6.998;2023-09-30T02:28:57;10.73;;;4.63;;
57401;SDS011;43226;51.110;6.998;2023-09-30T02:31:23;9.97;;;4.30;;
57401;SDS011;43226;51.110;6.998;2023-09-30T02:33:48;10.30;;;4.83;;
57401;SDS011;43226;51.110;6.998;2023-09-30T02:36:14;7.37;;;4.00;;
57401;SDS011;43226;51.110;6.998;2023-09-30T02:38:40;9.37;;;4.47;;
57401;SDS011;43226;51.110;6.998;2023-09-30T02:41:09;10.17;;;4.20;;
57401;SDS011;43226;51.110;6.998;2023-09-30T02:43:35;8.73;;;3.90;;
57401;SDS011;43226;51.110;6.998;2023-09-30T02:46:01;9.73;;;3.83;;
57401;SDS011;43226;51.110;6.998;2023-09-30T02:48:26;12.70;;;4.50;;
57401;SDS011;43226;51.110;6.998;2023-09-30T02:50:52;14.73;;;4.60;;
57401;SDS011;43226;51.110;6.998;2023-09-30T02:53:17;9.93;;;3.80;;
57401;SDS011;43226;51.110;6.998;2023-09-30T02:55:42;5.40;;;3.33;;
57401;SDS011;43226;51.110;6.998;2023-09-30T02:58:07;12.13;;;4.47;;
57401;SDS011;43226;51.110;6.998;2023-09-30T03:00:35;8.90;;;3.80;;
57401;SDS011;43226;51.110;6.998;2023-09-30T03:03:01;8.40;;;4.70;;
57401;SDS011;43226;51.110;6.998;2023-09-30T03:05:29;5.70;;;3.50;;
57401;SDS011;43226;51.110;6.998;2023-09-30T03:07:58;6.27;;;3.27;;
57401;SDS011;43226;51.110;6.998;2023-09-30T03:10:30;6.10;;;3.27;;
57401;SDS011;43226;51.110;6.998;2023-09-30T03:12:56;6.20;;;3.70;;
57401;SDS011;43226;51.110;6.998;2023-09-30T03:15:21;11.20;;;3.50;;
57401;SDS011;43226;51.110;6.998;2023-09-30T03:17:47;6.30;;;3.60;;
57401;SDS011;43226;51.110;6.998;2023-09-30T03:20:14;15.73;;;4.37;;
57401;SDS011;43226;51.110;6.998;2023-09-30T03:22:44;8.17;;;3.50;;
57401;SDS011;43226;51.110;6.998;2023-09-30T03:25:12;8.70;;;4.00;;
57401;SDS011;43226;51.110;6.998;2023-09-30T03:27:37;14.43;;;4.60;;
57401;SDS011;43226;51.110;6.998;2023-09-30T03:30:04;9.43;;;4.00;;
57401;SDS011;43226;51.110;6.998;2023-09-30T03:32:30;7.47;;;4.10;;
57401;SDS011;43226;51.110;6.998;2023-09-30T03:34:55;7.03;;;4.10;;
57401;SDS011;43226;51.110;6.998;2023-09-30T03:37:28;6.27;;;3.23;;
57401;SDS011;43226;51.110;6.998;2023-09-30T03:39:54;8.43;;;4.40;;
57401;SDS011;43226;51.110;6.998;2023-09-30T03:42:19;4.33;;;3.43;;
57401;SDS011;43226;51.110;6.998;2023-09-30T03:44:44;9.53;;;4.27;;
57401;SDS011;43226;51.110;6.998;2023-09-30T03:47:10;17.00;;;3.87;;
57401;SDS011;43226;51.110;6.998;2023-09-30T03:49:35;6.40;;;3.80;;
57401;SDS011;43226;51.110;6.998;2023-09-30T03:52:03;10.10;;;4.10;;
57401;SDS011;43226;51.110;6.998;2023-09-30T03:54:28;9.03;;;3.97;;
57401;SDS011;43226;51.110;6.998;2023-09-30T03:56:53;4.60;;;2.90;;
57401;SDS011;43226;51.110;6.998;2023-09-30T03:59:18;12.10;;;3.30;;
57401;SDS011;43226;51.110;6.998;2023-09-30T04:01:44;6.20;;;3.50;;
57401;SDS011;43226;51.110;6.998;2023-09-30T04:04:09;8.30;;;3.43;;
57401;SDS011;43226;51.110;6.998;2023-09-30T04:06:35;7.37;;;3.47;;
57401;SDS011;43226;51.110;6.998;2023-09-30T04:09:03;6.87;;;3.67;;
57401;SDS011;43226;51.110;6.998;2023-09-30T04:11:28;4.67;;;3.03;;
57401;SDS011;43226;51.110;6.998;2023-09-30T04:13:54;6.57;;;3.73;;
57401;SDS011;43226;51.110;6.998;2023-09-30T04:16:20;8.50;;;3.97;;
57401;SDS011;43226;51.110;6.998;2023-09-30T04:18:47;7.40;;;3.60;;
57401;SDS011;43226;51.110;6.998;2023-09-30T04:21:15;8.23;;;3.50;;
57401;SDS011;43226;51.110;6.998;2023-09-30T04:23:40;10.03;;;4.40;;
57401;SDS011;43226;51.110;6.998;2023-09-30T04:26:06;4.10;;;3.20;;
57401;SDS011;43226;51.110;6.998;2023-09-30T04:28:32;8.57;;;4.13;;
57401;SDS011;43226;51.110;6.998;2023-09-30T04:30:59;9.10;;;3.63;;
57401;SDS011;43226;51.110;6.998;2023-09-30T04:33:24;9.77;;;3.40;;
57401;SDS011;43226;51.110;6.998;2023-09-30T04:35:50;6.27;;;3.80;;
57401;SDS011;43226;51.110;6.998;2023-09-30T04:38:16;7.10;;;3.90;;
57401;SDS011;43226;51.110;6.998;2023-09-30T04:40:41;6.13;;;3.70;;
57401;SDS011;43226;51.110;6.998;2023-09-30T04:43:11;15.27;;;4.30;;
57401;SDS011;43226;51.110;6.998;2023-09-30T04:45:36;7.83;;;4.20;;
57401;SDS011;43226;51.110;6.998;2023-09-30T04:48:01;11.30;;;4.70;;
57401;SDS011;43226;51.110;6.998;2023-09-30T04:50:27;6.87;;;4.57;;
57401;SDS011;43226;51.110;6.998;2023-09-30T04:52:52;10.87;;;4.83;;
57401;SDS011;43226;51.110;6.998;2023-09-30T04:55:18;11.83;;;4.30;;
57401;SDS011;43226;51.110;6.998;2023-09-30T04:57:44;11.97;;;5.30;;
57401;SDS011;43226;51.110;6.998;2023-09-30T05:00:10;12.70;;;4.80;;
57401;SDS011;43226;51.110;6.998;2023-09-30T05:02:38;5.97;;;4.00;;
57401;SDS011;43226;51.110;6.998;2023-09-30T05:05:03;12.27;;;5.47;;
57401;SDS011;43226;51.110;6.998;2023-09-30T05:07:32;8.63;;;4.40;;
57401;SDS011;43226;51.110;6.998;2023-09-30T05:09:57;11.23;;;4.90;;
57401;SDS011;43226;51.110;6.998;2023-09-30T05:12:22;12.20;;;6.07;;
57401;SDS011;43226;51.110;6.998;2023-09-30T05:14:48;14.13;;;5.73;;
57401;SDS011;43226;51.110;6.998;2023-09-30T05:17:13;12.17;;;5.20;;
57401;SDS011;43226;51.110;6.998;2023-09-30T05:19:38;13.90;;;5.57;;
57401;SDS011;43226;51.110;6.998;2023-09-30T05:22:03;11.40;;;6.00;;
57401;SDS011;43226;51.110;6.998;2023-09-30T05:24:30;13.70;;;5.73;;
57401;SDS011;43226;51.110;6.998;2023-09-30T05:26:55;14.53;;;6.63;;
57401;SDS011;43226;51.110;6.998;2023-09-30T05:29:20;11.77;;;6.67;;
57401;SDS011;43226;51.110;6.998;2023-09-30T05:31:45;15.67;;;5.97;;
57401;SDS011;43226;51.110;6.998;2023-09-30T05:34:11;8.53;;;6.10;;
57401;SDS011;43226;51.110;6.998;2023-09-30T05:36:36;10.90;;;5.80;;
57401;SDS011;43226;51.110;6.998;2023-09-30T05:39:01;14.00;;;5.83;;
57401;SDS011;43226;51.110;6.998;2023-09-30T05:41:28;19.53;;;6.43;;
57401;SDS011;43226;51.110;6.998;2023-09-30T05:43:53;10.30;;;5.72;;
57401;SDS011;43226;51.110;6.998;2023-09-30T05:46:18;19.80;;;6.10;;
57401;SDS011;43226;51.110;6.998;2023-09-30T05:48:44;10.13;;;5.80;;
57401;SDS011;43226;51.110;6.998;2023-09-30T05:51:10;12.03;;;6.50;;
57401;SDS011;43226;51.110;6.998;2023-09-30T05:53:39;17.40;;;5.17;;
57401;SDS011;43226;51.110;6.998;2023-09-30T05:56:05;15.90;;;6.27;;
57401;SDS011;43226;51.110;6.998;2023-09-30T05:58:30;11.87;;;5.67;;
57401;SDS011;43226;51.110;6.998;2023-09-30T06:00:55;12.07;;;5.70;;
57401;SDS011;43226;51.110;6.998;2023-09-30T06:03:20;11.20;;;5.57;;
57401;SDS011;43226;51.110;6.998;2023-09-30T06:05:46;9.30;;;5.40;;
57401;SDS011;43226;51.110;6.998;2023-09-30T06:08:12;20.33;;;6.33;;
57401;SDS011;43226;51.110;6.998;2023-09-30T06:10:39;11.00;;;6.20;;
57401;SDS011;43226;51.110;6.998;2023-09-30T06:13:07;8.93;;;5.63;;
57401;SDS011;43226;51.110;6.998;2023-09-30T06:15:33;8.30;;;5.40;;
57401;SDS011;43226;51.110;6.998;2023-09-30T06:17:59;10.27;;;5.30;;
57401;SDS011;43226;51.110;6.998;2023-09-30T06:20:25;6.50;;;4.67;;
57401;SDS011;43226;51.110;6.998;2023-09-30T06:22:55;9.30;;;5.33;;
57401;SDS011;43226;51.110;6.998;2023-09-30T06:25:21;7.83;;;5.00;;
57401;SDS011;43226;51.110;6.998;2023-09-30T06:27:48;6.97;;;5.03;;
57401;SDS011;43226;51.110;6.998;2023-09-30T06:30:15;10.07;;;4.43;;
57401;SDS011;43226;51.110;6.998;2023-09-30T06:32:45;7.70;;;4.53;;
57401;SDS011;43226;51.110;6.998;2023-09-30T06:35:10;10.40;;;4.00;;
57401;SDS011;43226;51.110;6.998;2023-09-30T06:37:36;7.47;;;4.80;;
57401;SDS011;43226;51.110;6.998;2023-09-30T06:40:02;6.03;;;4.73;;
57401;SDS011;43226;51.110;6.998;2023-09-30T06:42:27;8.80;;;4.53;;
57401;SDS011;43226;51.110;6.998;2023-09-30T06:44:53;11.37;;;4.90;;
57401;SDS011;43226;51.110;6.998;2023-09-30T06:47:18;8.93;;;5.20;;
57401;SDS011;43226;51.110;6.998;2023-09-30T06:49:43;5.27;;;4.23;;
57401;SDS011;43226;51.110;6.998;2023-09-30T06:52:10;12.03;;;5.53;;
57401;SDS011;43226;51.110;6.998;2023-09-30T06:54:35;11.83;;;4.90;;
57401;SDS011;43226;51.110;6.998;2023-09-30T06:57:00;7.10;;;4.23;;
57401;SDS011;43226;51.110;6.998;2023-09-30T06:59:25;6.93;;;4.60;;
57401;SDS011;43226;51.110;6.998;2023-09-30T07:01:51;8.27;;;5.03;;
57401;SDS011;43226;51.110;6.998;2023-09-30T07:04:16;6.70;;;4.47;;
57401;SDS011;43226;51.110;6.998;2023-09-30T07:06:41;6.57;;;4.40;;
57401;SDS011;43226;51.110;6.998;2023-09-30T07:09:06;7.73;;;5.10;;
57401;SDS011;43226;51.110;6.998;2023-09-30T07:11:32;8.17;;;5.70;;
57401;SDS011;43226;51.110;6.998;2023-09-30T07:13:58;9.33;;;5.07;;
57401;SDS011;43226;51.110;6.998;2023-09-30T07:16:23;9.30;;;5.37;;
57401;SDS011;43226;51.110;6.998;2023-09-30T07:18:48;8.77;;;5.67;;
57401;SDS011;43226;51.110;6.998;2023-09-30T07:21:13;6.17;;;4.53;;
57401;SDS011;43226;51.110;6.998;2023-09-30T07:23:38;7.73;;;5.40;;
57401;SDS011;43226;51.110;6.998;2023-09-30T07:26:04;7.43;;;4.63;;
57401;SDS011;43226;51.110;6.998;2023-09-30T07:28:29;8.33;;;5.80;;
57401;SDS011;43226;51.110;6.998;2023-09-30T07:30:55;9.53;;;5.33;;
57401;SDS011;43226;51.110;6.998;2023-09-30T07:33:20;10.20;;;5.60;;
57401;SDS011;43226;51.110;6.998;2023-09-30T07:35:45;9.17;;;5.97;;
57401;SDS011;43226;51.110;6.998;2023-09-30T07:38:11;6.57;;;4.83;;
57401;SDS011;43226;51.110;6.998;2023-09-30T07:40:36;10.83;;;5.90;;
57401;SDS011;43226;51.110;6.998;2023-09-30T07:43:01;12.10;;;5.70;;
57401;SDS011;43226;51.110;6.998;2023-09-30T07:45:26;8.37;;;5.57;;
57401;SDS011;43226;51.110;6.998;2023-09-30T07:47:53;10.10;;;6.07;;
57401;SDS011;43226;51.110;6.998;2023-09-30T07:50:18;11.93;;;6.07;;
57401;SDS011;43226;51.110;6.998;2023-09-30T07:52:44;9.23;;;6.17;;
57401;SDS011;43226;51.110;6.998;2023-09-30T07:55:10;12.30;;;6.17;;
57401;SDS011;43226;51.110;6.998;2023-09-30T07:57:35;9.47;;;5.50;;
57401;SDS011;43226;51.110;6.998;2023-09-30T08:00:01;16.77;;;6.77;;
57401;SDS011;43226;51.110;6.998;2023-09-30T08:02:28;11.03;;;7.20;;
57401;SDS011;43226;51.110;6.998;2023-09-30T08:04:57;11.97;;;7.40;;
57401;SDS011;43226;51.110;6.998;2023-09-30T08:07:23;18.43;;;6.70;;
57401;SDS011;43226;51.110;6.998;2023-09-30T08:09:48;16.77;;;7.20;;
57401;SDS011;43226;51.110;6.998;2023-09-30T08:12:13;17.40;;;7.80;;
57401;SDS011;43226;51.110;6.998;2023-09-30T08:14:38;11.67;;;6.47;;
57401;SDS011;43226;51.110;6.998;2023-09-30T08:17:04;13.70;;;7.17;;
57401;SDS011;43226;51.110;6.998;2023-09-30T08:19:29;10.57;;;6.37;;
57401;SDS011;43226;51.110;6.998;2023-09-30T08:21:54;10.43;;;5.83;;
57401;SDS011;43226;51.110;6.998;2023-09-30T08:24:19;14.40;;;6.87;;
57401;SDS011;43226;51.110;6.998;2023-09-30T08:26:45;12.27;;;6.60;;
57401;SDS011;43226;51.110;6.998;2023-09-30T08:29:10;19.60;;;7.10;;
57401;SDS011;43226;51.110;6.998;2023-09-30T08:31:36;11.67;;;6.20;;
57401;SDS011;43226;51.110;6.998;2023-09-30T08:34:01;14.33;;;6.10;;
57401;SDS011;43226;51.110;6.998;2023-09-30T08:36:28;14.37;;;6.50;;
57401;SDS011;43226;51.110;6.998;2023-09-30T08:38:54;11.47;;;6.40;;
57401;SDS011;43226;51.110;6.998;2023-09-30T08:41:30;11.10;;;6.57;;
57401;SDS011;43226;51.110;6.998;2023-09-30T08:43:55;11.53;;;5.77;;
57401;SDS011;43226;51.110;6.998;2023-09-30T08:46:23;15.20;;;7.33;;
57401;SDS011;43226;51.110;6.998;2023-09-30T08:48:49;11.50;;;6.80;;
57401;SDS011;43226;51.110;6.998;2023-09-30T08:51:15;12.20;;;7.13;;
57401;SDS011;43226;51.110;6.998;2023-09-30T08:53:40;15.23;;;7.50;;
57401;SDS011;43226;51.110;6.998;2023-09-30T08:56:06;14.50;;;8.40;;
57401;SDS011;43226;51.110;6.998;2023-09-30T08:58:35;18.60;;;7.53;;
57401;SDS011;43226;51.110;6.998;2023-09-30T09:01:01;14.80;;;7.27;;
57401;SDS011;43226;51.110;6.998;2023-09-30T09:03:27;12.00;;;7.00;;
57401;SDS011;43226;51.110;6.998;2023-09-30T09:05:53;17.17;;;6.67;;
57401;SDS011;43226;51.110;6.998;2023-09-30T09:08:20;9.10;;;6.47;;
57401;SDS011;43226;51.110;6.998;2023-09-30T09:10:55;11.73;;;6.27;;
57401;SDS011;43226;51.110;6.998;2023-09-30T09:13:21;14.10;;;7.03;;
57401;SDS011;43226;51.110;6.998;2023-09-30T09:15:46;14.17;;;8.03;;
57401;SDS011;43226;51.110;6.998;2023-09-30T09:18:11;14.77;;;6.83;;
57401;SDS011;43226;51.110;6.998;2023-09-30T09:20:39;6.53;;;5.10;;
57401;SDS011;43226;51.110;6.998;2023-09-30T09:23:04;14.20;;;6.67;;
57401;SDS011;43226;51.110;6.998;2023-09-30T09:25:31;12.60;;;6.53;;
57401;SDS011;43226;51.110;6.998;2023-09-30T09:28:02;12.30;;;6.37;;
57401;SDS011;43226;51.110;6.998;2023-09-30T09:30:27;8.80;;;5.40;;
57401;SDS011;43226;51.110;6.998;2023-09-30T09:35:20;11.03;;;5.33;;
57401;SDS011;43226;51.110;6.998;2023-09-30T09:37:53;15.50;;;6.03;;
57401;SDS011;43226;51.110;6.998;2023-09-30T09:40:22;12.43;;;5.60;;
57401;SDS011;43226;51.110;6.998;2023-09-30T09:42:47;15.43;;;5.60;;
57401;SDS011;43226;51.110;6.998;2023-09-30T09:45:15;12.50;;;6.07;;
57401;SDS011;43226;51.110;6.998;2023-09-30T09:47:41;11.80;;;5.00;;
57401;SDS011;43226;51.110;6.998;2023-09-30T09:50:06;9.17;;;5.00;;
57401;SDS011;43226;51.110;6.998;2023-09-30T09:52:32;13.20;;;5.13;;
57401;SDS011;43226;51.110;6.998;2023-09-30T09:54:58;10.40;;;4.67;;
57401;SDS011;43226;51.110;6.998;2023-09-30T09:57:24;13.30;;;5.40;;
57401;SDS011;43226;51.110;6.998;2023-09-30T09:59:50;9.50;;;4.37;;
57401;SDS011;43226;51.110;6.998;2023-09-30T10:02:16;10.60;;;4.43;;
57401;SDS011;43226;51.110;6.998;2023-09-30T10:04:43;7.03;;;4.07;;
57401;SDS011;43226;51.110;6.998;2023-09-30T10:07:09;8.40;;;4.00;;
57401;SDS011;43226;51.110;6.998;2023-09-30T10:09:36;10.77;;;3.90;;
57401;SDS011;43226;51.110;6.998;2023-09-30T10:12:01;8.63;;;4.10;;
57401;SDS011;43226;51.110;6.998;2023-09-30T10:14:33;12.50;;;4.53;;
57401;SDS011;43226;51.110;6.998;2023-09-30T10:16:58;7.57;;;3.83;;
57401;SDS011;43226;51.110;6.998;2023-09-30T10:19:23;6.13;;;3.73;;
57401;SDS011;43226;51.110;6.998;2023-09-30T10:24:33;8.60;;;3.50;;
57401;SDS011;43226;51.110;6.998;2023-09-30T10:29:42;8.30;;;3.20;;
57401;SDS011;43226;51.110;6.998;2023-09-30T10:32:07;10.63;;;3.90;;
57401;SDS011;43226;51.110;6.998;2023-09-30T10:34:33;7.20;;;3.60;;
57401;SDS011;43226;51.110;6.998;2023-09-30T10:36:58;7.10;;;3.33;;
57401;SDS011;43226;51.110;6.998;2023-09-30T10:42:07;7.80;;;4.17;;
57401;SDS011;43226;51.110;6.998;2023-09-30T10:44:35;7.10;;;4.00;;
57401;SDS011;43226;51.110;6.998;2023-09-30T10:47:46;6.60;;;4.10;;
57401;SDS011;43226;51.110;6.998;2023-09-30T10:49:46;7.90;;;3.63;;
57401;SDS011;43226;51.110;6.998;2023-09-30T10:52:12;8.00;;;4.00;;
57401;SDS011;43226;51.110;6.998;2023-09-30T10:54:45;7.53;;;4.00;;
57401;SDS011;43226;51.110;6.998;2023-09-30T10:57:11;7.93;;;3.90;;
57401;SDS011;43226;51.110;6.998;2023-09-30T10:59:37;6.43;;;4.20;;
57401;SDS011;43226;51.110;6.998;2023-09-30T11:02:02;6.47;;;4.17;;
57401;SDS011;43226;51.110;6.998;2023-09-30T11:04:28;5.97;;;3.57;;
57401;SDS011;43226;51.110;6.998;2023-09-30T11:06:53;17.37;;;4.20;;
57401;SDS011;43226;51.110;6.998;2023-09-30T11:09:22;8.30;;;4.17;;
57401;SDS011;43226;51.110;6.998;2023-09-30T11:11:48;7.63;;;3.70;;
57401;SDS011;43226;51.110;6.998;2023-09-30T11:14:23;5.70;;;3.90;;
57401;SDS011;43226;51.110;6.998;2023-09-30T11:16:50;10.03;;;4.40;;
57401;SDS011;43226;51.110;6.998;2023-09-30T11:19:15;5.37;;;4.60;;
57401;SDS011;43226;51.110;6.998;2023-09-30T11:21:41;10.73;;;4.90;;
57401;SDS011;43226;51.110;6.998;2023-09-30T11:24:06;5.50;;;4.00;;
57401;SDS011;43226;51.110;6.998;2023-09-30T11:26:32;9.70;;;4.30;;
57401;SDS011;43226;51.110;6.998;2023-09-30T11:29:07;6.50;;;3.47;;
57401;SDS011;43226;51.110;6.998;2023-09-30T11:31:33;6.53;;;2.67;;
57401;SDS011;43226;51.110;6.998;2023-09-30T11:33:59;4.63;;;3.10;;
57401;SDS011;43226;51.110;6.998;2023-09-30T11:36:28;5.07;;;3.37;;
57401;SDS011;43226;51.110;6.998;2023-09-30T11:38:55;3.50;;;2.60;;
57401;SDS011;43226;51.110;6.998;2023-09-30T11:41:21;6.00;;;2.73;;
57401;SDS011;43226;51.110;6.998;2023-09-30T11:46:29;8.97;;;3.57;;
57401;SDS011;43226;51.110;6.998;2023-09-30T11:49:01;4.30;;;2.33;;
57401;SDS011;43226;51.110;6.998;2023-09-30T11:51:27;5.20;;;2.93;;
57401;SDS011;43226;51.110;6.998;2023-09-30T11:53:53;3.60;;;2.57;;
57401;SDS011;43226;51.110;6.998;2023-09-30T11:56:20;3.70;;;2.73;;
57401;SDS011;43226;51.110;6.998;2023-09-30T11:58:45;6.70;;;2.63;;
57401;SDS011;43226;51.110;6.998;2023-09-30T12:01:11;4.30;;;2.40;;
57401;SDS011;43226;51.110;6.998;2023-09-30T12:03:39;4.10;;;2.40;;
57401;SDS011;43226;51.110;6.998;2023-09-30T12:06:05;6.17;;;2.50;;
57401;SDS011;43226;51.110;6.998;2023-09-30T12:08:30;5.33;;;2.60;;
57401;SDS011;43226;51.110;6.998;2023-09-30T12:10:55;4.20;;;2.47;;
57401;SDS011;43226;51.110;6.998;2023-09-30T12:13:20;5.07;;;2.70;;
57401;SDS011;43226;51.110;6.998;2023-09-30T12:15:46;4.95;;;2.95;;
57401;SDS011;43226;51.110;6.998;2023-09-30T12:18:11;6.27;;;3.63;;
57401;SDS011;43226;51.110;6.998;2023-09-30T12:20:38;5.50;;;4.00;;
57401;SDS011;43226;51.110;6.998;2023-09-30T12:23:03;4.70;;;3.13;;
57401;SDS011;43226;51.110;6.998;2023-09-30T12:25:30;5.93;;;3.33;;
57401;SDS011;43226;51.110;6.998;2023-09-30T12:27:56;8.45;;;3.05;;
57401;SDS011;43226;51.110;6.998;2023-09-30T12:30:21;5.23;;;3.50;;
57401;SDS011;43226;51.110;6.998;2023-09-30T12:32:46;5.20;;;3.47;;
57401;SDS011;43226;51.110;6.998;2023-09-30T12:35:11;5.03;;;3.57;;
57401;SDS011;43226;51.110;6.998;2023-09-30T12:37:37;6.43;;;3.40;;
57401;SDS011;43226;51.110;6.998;2023-09-30T12:40:03;7.13;;;3.70;;
57401;SDS011;43226;51.110;6.998;2023-09-30T12:42:31;5.70;;;3.17;;
57401;SDS011;43226;51.110;6.998;2023-09-30T12:44:57;5.23;;;2.87;;
57401;SDS011;43226;51.110;6.998;2023-09-30T12:47:22;4.47;;;3.20;;
57401;SDS011;43226;51.110;6.998;2023-09-30T12:49:47;5.67;;;3.00;;
57401;SDS011;43226;51.110;6.998;2023-09-30T12:52:12;6.10;;;2.87;;
57401;SDS011;43226;51.110;6.998;2023-09-30T12:54:37;5.43;;;2.70;;
57401;SDS011;43226;51.110;6.998;2023-09-30T12:57:03;4.83;;;3.10;;
57401;SDS011;43226;51.110;6.998;2023-09-30T12:59:28;4.47;;;3.03;;
57401;SDS011;43226;51.110;6.998;2023-09-30T13:01:53;7.50;;;2.57;;
57401;SDS011;43226;51.110;6.998;2023-09-30T13:04:18;4.30;;;3.07;;
57401;SDS011;43226;51.110;6.998;2023-09-30T13:06:44;6.40;;;2.97;;
57401;SDS011;43226;51.110;6.998;2023-09-30T13:09:10;6.23;;;3.03;;
57401;SDS011;43226;51.110;6.998;2023-09-30T13:11:36;6.23;;;2.80;;
57401;SDS011;43226;51.110;6.998;2023-09-30T13:14:01;7.83;;;3.33;;
57401;SDS011;43226;51.110;6.998;2023-09-30T13:16:27;4.67;;;2.47;;
57401;SDS011;43226;51.110;6.998;2023-09-30T13:18:52;6.13;;;3.10;;
57401;SDS011;43226;51.110;6.998;2023-09-30T13:21:18;10.63;;;3.40;;
57401;SDS011;43226;51.110;6.998;2023-09-30T13:23:43;7.50;;;2.90;;
57401;SDS011;43226;51.110;6.998;2023-09-30T13:26:09;6.57;;;3.20;;
57401;SDS011;43226;51.110;6.998;2023-09-30T13:28:34;5.77;;;2.93;;
57401;SDS011;43226;51.110;6.998;2023-09-30T13:31:00;9.27;;;3.00;;
57401;SDS011;43226;51.110;6.998;2023-09-30T13:33:26;7.93;;;3.10;;
57401;SDS011;43226;51.110;6.998;2023-09-30T13:35:51;3.60;;;2.60;;
57401;SDS011;43226;51.110;6.998;2023-09-30T13:38:16;6.43;;;3.10;;
57401;SDS011;43226;51.110;6.998;2023-09-30T13:40:42;9.37;;;3.20;;
57401;SDS011;43226;51.110;6.998;2023-09-30T13:43:07;9.13;;;2.87;;
57401;SDS011;43226;51.110;6.998;2023-09-30T13:45:32;10.20;;;2.67;;
57401;SDS011;43226;51.110;6.998;2023-09-30T13:47:57;6.57;;;3.00;;
57401;SDS011;43226;51.110;6.998;2023-09-30T13:50:22;7.20;;;2.90;;
57401;SDS011;43226;51.110;6.998;2023-09-30T13:52:48;3.77;;;2.10;;
57401;SDS011;43226;51.110;6.998;2023-09-30T13:55:13;4.90;;;2.40;;
57401;SDS011;43226;51.110;6.998;2023-09-30T13:57:44;4.20;;;2.23;;
57401;SDS011;43226;51.110;6.998;2023-09-30T14:00:10;6.33;;;2.77;;
57401;SDS011;43226;51.110;6.998;2023-09-30T14:02:35;17.93;;;3.00;;
57401;SDS011;43226;51.110;6.998;2023-09-30T14:05:01;6.20;;;2.70;;
57401;SDS011;43226;51.110;6.998;2023-09-30T14:07:27;3.57;;;2.40;;
57401;SDS011;43226;51.110;6.998;2023-09-30T14:09:53;4.77;;;2.73;;
57401;SDS011;43226;51.110;6.998;2023-09-30T14:12:18;5.60;;;2.80;;
57401;SDS011;43226;51.110;6.998;2023-09-30T14:14:44;6.87;;;3.23;;
57401;SDS011;43226;51.110;6.998;2023-09-30T14:17:09;7.10;;;2.70;;
57401;SDS011;43226;51.110;6.998;2023-09-30T14:19:39;4.60;;;2.70;;
57401;SDS011;43226;51.110;6.998;2023-09-30T14:22:05;7.50;;;2.60;;
57401;SDS011;43226;51.110;6.998;2023-09-30T14:24:32;6.53;;;2.00;;
57401;SDS011;43226;51.110;6.998;2023-09-30T14:27:04;4.77;;;2.20;;
57401;SDS011;43226;51.110;6.998;2023-09-30T14:29:32;9.13;;;3.67;;
57401;SDS011;43226;51.110;6.998;2023-09-30T14:31:57;6.07;;;2.87;;
57401;SDS011;43226;51.110;6.998;2023-09-30T14:34:22;8.73;;;2.57;;
57401;SDS011;43226;51.110;6.998;2023-09-30T14:36:48;6.83;;;2.53;;
57401;SDS011;43226;51.110;6.998;2023-09-30T14:39:13;7.60;;;2.83;;
57401;SDS011;43226;51.110;6.998;2023-09-30T14:41:38;4.20;;;2.30;;
57401;SDS011;43226;51.110;6.998;2023-09-30T14:44:03;6.27;;;2.60;;
57401;SDS011;43226;51.110;6.998;2023-09-30T14:46:32;4.23;;;2.37;;
57401;SDS011;43226;51.110;6.998;2023-09-30T14:48:57;13.33;;;2.73;;